Time;durP1;ratioP1;P1;durP2;ratioP2;P2;SDS_P1;SDS_P2;PMS_P1;PMS_P2;Temp;Humidity;BMP_temperature;BMP_pressure;BME280_temperature;BME280_humidity;BME280_pressure;Samples;Min_cycle;Max_cycle;Signal;HPM_P1;HPM_P2
2021/05/22 00:01:09;;;;;;;5.70;2.80;;;10.60;99.90;;;;;;5038784;28;20146;-83
2021/05/22 00:03:36;;;;;;;6.15;2.97;;;10.60;99.90;;;;;;5038267;28;20045;-82
2021/05/22 00:06:03;;;;;;;5.75;3.03;;;10.60;99.90;;;;;;5039033;28;20045;-81
2021/05/22 00:08:29;;;;;;;8.00;3.00;;;10.50;99.90;;;;;;5037889;28;20046;-81
2021/05/22 00:10:56;;;;;;;5.68;2.65;;;10.60;99.90;;;;;;5037790;28;20085;-81
2021/05/22 00:13:22;;;;;;;8.77;2.80;;;10.70;99.90;;;;;;5038493;28;20053;-81
2021/05/22 00:15:49;;;;;;;5.22;2.50;;;10.80;99.90;;;;;;5037243;28;20091;-82
2021/05/22 00:18:15;;;;;;;4.65;2.15;;;10.90;99.90;;;;;;5039157;28;20132;-81
2021/05/22 00:20:42;;;;;;;8.50;2.67;;;11.00;99.90;;;;;;5046512;28;20114;-83
2021/05/22 00:23:10;;;;;;;7.72;2.90;;;11.00;99.90;;;;;;5048401;28;20060;-85
2021/05/22 00:25:37;;;;;;;6.00;2.13;;;11.00;99.90;;;;;;5046590;28;20441;-85
2021/05/22 00:28:03;;;;;;;6.28;2.50;;;11.00;99.90;;;;;;5038527;28;20128;-82
2021/05/22 00:30:30;;;;;;;5.93;2.20;;;11.00;99.90;;;;;;5036716;28;20088;-80
2021/05/22 00:32:56;;;;;;;6.88;2.55;;;11.00;99.90;;;;;;5037015;28;20065;-86
2021/05/22 00:35:23;;;;;;;5.82;2.75;;;10.90;99.90;;;;;;5038047;28;20081;-84
2021/05/22 00:37:50;;;;;;;5.05;2.67;;;10.90;99.90;;;;;;5038007;28;20061;-84
2021/05/22 00:40:16;;;;;;;5.68;2.50;;;10.90;99.90;;;;;;5037365;28;20454;-82
2021/05/22 00:42:44;;;;;;;7.15;2.75;;;10.90;99.90;;;;;;5037865;28;20053;-82
2021/05/22 00:45:16;;;;;;;5.95;2.50;;;10.90;99.90;;;;;;5037472;28;20053;-82
2021/05/22 00:47:46;;;;;;;7.28;2.60;;;10.80;99.90;;;;;;5036834;28;20457;-81
2021/05/22 00:50:16;;;;;;;7.53;2.70;;;10.80;99.90;;;;;;5037942;28;20086;-82
2021/05/22 00:52:43;;;;;;;5.43;2.55;;;10.70;99.90;;;;;;5038134;28;20049;-82
2021/05/22 00:55:11;;;;;;;9.60;3.67;;;10.70;99.90;;;;;;5037559;28;20080;-84
2021/05/22 00:57:40;;;;;;;8.98;2.80;;;10.70;99.90;;;;;;5038963;28;20049;-83
2021/05/22 01:00:09;;;;;;;8.80;3.40;;;10.70;99.90;;;;;;5039117;28;20096;-85
2021/05/22 01:02:36;;;;;;;5.25;2.42;;;10.60;99.90;;;;;;5042616;28;20510;-82
2021/05/22 01:05:03;;;;;;;6.07;2.72;;;10.50;99.90;;;;;;5040709;28;20064;-83
2021/05/22 01:07:30;;;;;;;6.60;3.00;;;10.50;99.90;;;;;;5041898;28;20076;-84
2021/05/22 01:09:57;;;;;;;8.63;2.92;;;10.40;99.90;;;;;;5039502;28;20081;-81
2021/05/22 01:12:30;;;;;;;5.82;2.95;;;10.40;99.90;;;;;;5038261;28;20050;-82
2021/05/22 01:15:03;;;;;;;6.93;2.60;;;10.40;99.90;;;;;;5037389;28;20089;-82
2021/05/22 01:17:31;;;;;;;4.35;2.15;;;10.40;99.90;;;;;;5036932;28;20050;-81
2021/05/22 01:20:06;;;;;;;8.35;2.72;;;10.40;99.90;;;;;;5037547;28;20053;-83
2021/05/22 01:22:38;;;;;;;7.00;2.42;;;10.40;99.90;;;;;;5038220;28;20053;-82
2021/05/22 01:25:07;;;;;;;5.57;2.67;;;10.40;99.90;;;;;;5037938;28;20053;-82
2021/05/22 01:27:36;;;;;;;7.93;2.65;;;10.40;99.90;;;;;;5037957;28;20056;-82
2021/05/22 01:30:06;;;;;;;6.53;2.60;;;10.30;99.90;;;;;;5036211;28;20053;-78
2021/05/22 01:32:33;;;;;;;7.30;2.75;;;10.30;99.90;;;;;;5036328;28;20144;-80
2021/05/22 01:35:00;;;;;;;6.35;2.75;;;10.20;99.90;;;;;;5035472;28;20053;-80
2021/05/22 01:37:27;;;;;;;6.75;3.13;;;10.10;99.90;;;;;;5034965;28;20085;-81
2021/05/22 01:39:53;;;;;;;7.05;3.40;;;10.00;99.90;;;;;;5039171;28;20512;-83
2021/05/22 01:42:20;;;;;;;9.38;3.17;;;9.90;99.90;;;;;;5041279;28;20060;-83
2021/05/22 01:44:51;;;;;;;6.63;2.78;;;9.90;99.90;;;;;;5040903;28;20056;-81
2021/05/22 01:47:21;;;;;;;9.40;3.33;;;9.80;99.90;;;;;;5041785;28;20056;-82
2021/05/22 01:49:49;;;;;;;6.35;3.00;;;9.70;99.90;;;;;;5041616;28;20128;-83
2021/05/22 01:52:19;;;;;;;10.55;3.20;;;9.70;99.90;;;;;;5041003;28;20133;-82
2021/05/22 01:54:48;;;;;;;7.88;3.22;;;9.60;99.90;;;;;;5039062;28;20049;-83
2021/05/22 01:57:14;;;;;;;10.52;3.17;;;9.60;99.90;;;;;;5040734;28;20128;-82
2021/05/22 01:59:40;;;;;;;7.57;3.70;;;9.50;99.90;;;;;;5041059;28;20552;-81
2021/05/22 02:02:08;;;;;;;7.20;3.20;;;9.50;99.90;;;;;;5040377;28;20112;-82
2021/05/22 02:04:36;;;;;;;5.70;3.17;;;9.50;99.90;;;;;;5040786;28;20570;-83
2021/05/22 02:07:03;;;;;;;11.15;3.40;;;9.50;99.90;;;;;;5040711;28;20081;-81
2021/05/22 02:09:31;;;;;;;7.90;2.92;;;9.50;99.90;;;;;;5040285;28;20099;-78
2021/05/22 02:11:58;;;;;;;10.57;3.47;;;9.50;99.90;;;;;;5040055;28;20095;-82
2021/05/22 02:14:31;;;;;;;6.05;3.15;;;9.50;99.90;;;;;;5039862;28;20470;-82
2021/05/22 02:16:58;;;;;;;;;;;9.50;99.90;;;;;;5040527;28;20123;-82
2021/05/22 02:19:28;;;;;;;7.70;3.28;;;9.50;99.90;;;;;;5040362;28;19928;-81
2021/05/22 02:21:55;;;;;;;6.05;3.10;;;9.40;99.90;;;;;;5060902;22;20413;-77
2021/05/22 02:24:24;;;;;;;8.38;3.08;;;9.40;99.90;;;;;;5052965;28;20527;-78
2021/05/22 02:26:52;;;;;;;7.75;3.65;;;9.30;99.90;;;;;;5054220;28;20045;-78
2021/05/22 02:29:21;;;;;;;8.68;3.47;;;9.40;99.90;;;;;;5053998;28;20181;-78
2021/05/22 02:31:49;;;;;;;6.90;3.42;;;9.30;99.90;;;;;;5053920;28;20055;-78
2021/05/22 02:34:20;;;;;;;7.03;3.67;;;9.30;99.90;;;;;;5053503;28;20216;-78
2021/05/22 02:36:50;;;;;;;10.85;3.67;;;9.30;99.90;;;;;;5053953;28;20231;-79
2021/05/22 02:39:17;;;;;;;8.93;3.60;;;9.30;99.90;;;;;;5054098;28;20561;-79
2021/05/22 02:41:46;;;;;;;7.47;3.58;;;9.30;99.90;;;;;;5054059;28;20049;-79
2021/05/22 02:44:15;;;;;;;6.50;3.55;;;9.20;99.90;;;;;;5054043;28;20140;-78
2021/05/22 02:46:44;;;;;;;8.10;3.38;;;9.20;99.90;;;;;;5055145;28;20128;-79
2021/05/22 02:49:15;;;;;;;10.75;3.75;;;9.20;99.90;;;;;;5054969;28;20139;-78
2021/05/22 02:51:45;;;;;;;11.20;4.05;;;9.20;99.90;;;;;;5054961;28;20052;-77
2021/05/22 02:54:13;;;;;;;8.45;3.78;;;9.20;99.90;;;;;;5053546;28;20520;-77
2021/05/22 02:56:41;;;;;;;7.95;3.30;;;9.20;99.90;;;;;;5054401;28;20080;-78
2021/05/22 02:59:09;;;;;;;9.27;3.55;;;9.20;99.90;;;;;;5060879;28;20505;-78
2021/05/22 03:01:36;;;;;;;7.50;4.13;;;9.20;99.90;;;;;;5063239;28;20080;-78
2021/05/22 03:04:03;;;;;;;8.82;3.75;;;9.20;99.90;;;;;;5074237;28;20045;-79
2021/05/22 03:06:29;;;;;;;8.63;4.07;;;9.10;99.90;;;;;;5074110;28;20088;-77
2021/05/22 03:08:57;;;;;;;11.00;3.40;;;9.10;99.90;;;;;;5061141;28;20080;-78
2021/05/22 03:11:24;;;;;;;7.00;3.17;;;9.10;99.90;;;;;;5055201;28;20094;-78
2021/05/22 03:13:51;;;;;;;12.30;4.15;;;9.10;99.90;;;;;;5052799;28;20136;-79
2021/05/22 03:16:17;;;;;;;8.90;3.55;;;9.00;99.90;;;;;;5053256;28;20139;-79
2021/05/22 03:18:44;;;;;;;8.35;3.70;;;9.10;99.90;;;;;;5053078;28;20052;-78
2021/05/22 03:21:11;;;;;;;9.07;3.60;;;9.00;99.90;;;;;;5052712;28;20084;-78
2021/05/22 03:23:38;;;;;;;9.45;3.35;;;9.00;99.90;;;;;;5054083;28;20152;-80
2021/05/22 03:26:05;;;;;;;8.52;3.40;;;9.00;99.90;;;;;;5055594;28;20493;-79
2021/05/22 03:28:33;;;;;;;9.57;3.70;;;9.00;99.90;;;;;;5054124;28;20132;-80
2021/05/22 03:30:59;;;;;;;8.32;3.85;;;9.00;99.90;;;;;;5053823;28;20171;-79
2021/05/22 03:33:26;;;;;;;12.30;3.63;;;9.00;99.90;;;;;;5053208;28;20136;-80
2021/05/22 03:35:52;;;;;;;11.52;4.10;;;9.00;99.90;;;;;;5052174;28;20492;-79
2021/05/22 03:38:19;;;;;;;17.17;4.32;;;9.00;99.90;;;;;;5053592;28;20493;-79
2021/05/22 03:40:45;;;;;;;7.05;3.63;;;9.10;99.90;;;;;;5055693;28;20067;-79
2021/05/22 03:43:12;;;;;;;11.73;4.03;;;9.10;99.90;;;;;;5056033;28;20341;-79
2021/05/22 03:45:39;;;;;;;11.77;3.45;;;9.10;99.90;;;;;;5053942;28;20136;-80
2021/05/22 03:48:06;;;;;;;7.57;3.92;;;9.10;99.90;;;;;;5053502;28;20481;-79
2021/05/22 03:50:32;;;;;;;9.32;3.45;;;9.10;99.90;;;;;;5051838;28;20132;-79
2021/05/22 03:52:59;;;;;;;7.47;3.50;;;9.10;99.90;;;;;;5051225;28;20135;-78
2021/05/22 03:55:26;;;;;;;9.80;3.67;;;9.20;99.90;;;;;;5051710;28;20140;-78
2021/05/22 03:57:52;;;;;;;9.38;3.35;;;9.20;99.90;;;;;;5052138;28;20544;-78
2021/05/22 04:00:19;;;;;;;7.95;3.53;;;9.20;99.90;;;;;;5051752;28;20210;-78
2021/05/22 04:02:46;;;;;;;8.40;3.78;;;9.30;99.90;;;;;;5050566;28;20055;-79
2021/05/22 04:05:13;;;;;;;7.22;3.38;;;9.40;99.90;;;;;;5051369;28;20524;-78
2021/05/22 04:07:40;;;;;;;8.68;3.40;;;9.50;99.90;;;;;;5051601;28;20106;-78
2021/05/22 04:10:07;;;;;;;9.35;3.45;;;9.50;99.90;;;;;;5051431;28;20049;-78
2021/05/22 04:12:33;;;;;;;11.68;3.20;;;9.60;99.90;;;;;;5051361;28;20048;-78
2021/05/22 04:15:00;;;;;;;9.27;3.38;;;9.70;99.90;;;;;;5050964;28;20080;-79
2021/05/22 04:17:26;;;;;;;9.18;3.28;;;9.80;99.90;;;;;;5050790;28;20053;-78
2021/05/22 04:19:54;;;;;;;8.50;3.72;;;9.90;99.90;;;;;;5051241;28;20140;-79
2021/05/22 04:22:20;;;;;;;7.10;3.60;;;9.90;99.90;;;;;;5053850;28;20087;-79
2021/05/22 04:24:46;;;;;;;7.53;3.65;;;10.00;99.90;;;;;;5053464;28;20128;-79
2021/05/22 04:27:13;;;;;;;12.77;3.53;;;10.10;99.90;;;;;;5054236;28;20049;-80
2021/05/22 04:29:39;;;;;;;7.85;3.47;;;10.10;99.90;;;;;;5054116;28;20041;-80
2021/05/22 04:32:06;;;;;;;12.38;5.78;;;10.10;99.90;;;;;;5053650;28;20055;-79
2021/05/22 04:34:33;;;;;;;6.75;3.42;;;10.30;99.90;;;;;;5051042;28;20045;-78
2021/05/22 04:37:00;;;;;;;5.75;3.25;;;10.30;99.90;;;;;;5051183;28;20131;-78
2021/05/22 04:39:27;;;;;;;4.32;2.97;;;10.40;99.90;;;;;;5052148;28;20131;-78
2021/05/22 04:41:53;;;;;;;8.15;3.80;;;10.40;99.90;;;;;;5050912;28;20144;-79
2021/05/22 04:44:19;;;;;;;7.30;3.40;;;10.50;99.90;;;;;;5050535;28;20480;-79
2021/05/22 04:46:46;;;;;;;9.02;3.40;;;10.50;99.90;;;;;;5051356;28;20075;-78
2021/05/22 04:49:12;;;;;;;9.68;3.45;;;10.60;99.90;;;;;;5051431;28;20088;-79
2021/05/22 04:51:39;;;;;;;8.32;3.50;;;10.60;99.90;;;;;;5050936;28;20060;-78
2021/05/22 04:54:07;;;;;;;8.77;3.47;;;10.70;99.90;;;;;;5052363;28;20140;-79
2021/05/22 04:56:34;;;;;;;8.63;3.15;;;10.70;99.90;;;;;;5052497;28;20183;-79
2021/05/22 04:59:01;;;;;;;5.50;2.75;;;10.80;99.90;;;;;;5052441;28;20568;-80
2021/05/22 05:01:28;;;;;;;7.85;2.88;;;10.90;99.90;;;;;;5053361;28;20143;-80
2021/05/22 05:03:55;;;;;;;8.30;3.20;;;10.90;99.90;;;;;;5052412;28;20052;-79
2021/05/22 05:06:21;;;;;;;9.90;3.30;;;11.00;99.90;;;;;;5052147;28;20053;-79
2021/05/22 05:08:48;;;;;;;12.05;3.20;;;11.00;99.90;;;;;;5052363;28;20055;-80
2021/05/22 05:11:16;;;;;;;7.22;3.00;;;11.10;99.90;;;;;;5051962;28;20131;-80
2021/05/22 05:13:42;;;;;;;7.32;2.63;;;11.10;99.90;;;;;;5050477;28;20056;-79
2021/05/22 05:16:10;;;;;;;6.82;2.88;;;11.20;99.90;;;;;;5054228;28;20053;-78
2021/05/22 05:18:37;;;;;;;4.45;2.35;;;11.30;99.90;;;;;;5054307;28;20131;-78
2021/05/22 05:21:03;;;;;;;14.00;3.03;;;11.30;99.90;;;;;;5054221;28;20136;-78
2021/05/22 05:23:30;;;;;;;8.52;2.72;;;11.40;99.90;;;;;;5054631;28;20131;-77
2021/05/22 05:25:56;;;;;;;3.92;2.70;;;11.40;99.90;;;;;;5055075;28;20383;-78
2021/05/22 05:28:23;;;;;;;7.13;2.58;;;11.40;99.90;;;;;;5054796;28;20114;-80
2021/05/22 05:30:50;;;;;;;5.00;2.33;;;11.50;99.90;;;;;;5054429;28;20091;-79
2021/05/22 05:33:16;;;;;;;7.75;2.80;;;11.60;99.90;;;;;;5054252;28;20087;-79
2021/05/22 05:35:42;;;;;;;7.85;2.50;;;11.70;99.90;;;;;;5054267;28;20400;-78
2021/05/22 05:38:09;;;;;;;7.82;2.67;;;11.80;99.90;;;;;;5057062;28;20077;-78
2021/05/22 05:40:37;;;;;;;7.07;2.55;;;12.10;99.90;;;;;;5055693;28;20131;-80
2021/05/22 05:43:03;;;;;;;4.63;2.42;;;12.40;99.90;;;;;;5054390;28;20052;-79
2021/05/22 05:45:31;;;;;;;4.75;2.25;;;12.80;99.90;;;;;;5054002;28;20087;-78
2021/05/22 05:47:57;;;;;;;7.35;2.38;;;12.90;99.90;;;;;;5053817;28;20568;-78
2021/05/22 05:50:24;;;;;;;5.85;2.38;;;13.10;99.90;;;;;;5054454;28;20085;-79
2021/05/22 05:52:50;;;;;;;7.75;2.65;;;13.10;99.90;;;;;;5055269;28;20048;-81
2021/05/22 05:55:17;;;;;;;4.80;2.10;;;13.10;99.90;;;;;;5055410;28;20402;-79
2021/05/22 05:57:43;;;;;;;6.28;2.38;;;13.10;99.90;;;;;;5056180;28;20049;-76
2021/05/22 06:00:10;;;;;;;8.75;2.58;;;13.10;99.90;;;;;;5058607;28;20052;-79
2021/05/22 06:02:38;;;;;;;6.85;2.63;;;13.20;99.90;;;;;;5058891;28;20112;-83
2021/05/22 06:05:06;;;;;;;5.65;2.65;;;13.40;99.90;;;;;;5060321;28;20493;-80
2021/05/22 06:07:33;;;;;;;6.22;2.40;;;13.40;99.90;;;;;;5054292;28;20476;-81
2021/05/22 06:09:59;;;;;;;7.30;2.63;;;13.40;99.90;;;;;;5053834;28;20172;-79
2021/05/22 06:12:26;;;;;;;10.68;2.70;;;13.30;99.90;;;;;;5054256;28;20132;-78
2021/05/22 06:14:53;;;;;;;5.28;2.40;;;13.20;99.90;;;;;;5054256;28;20048;-78
2021/05/22 06:17:20;;;;;;;4.85;2.35;;;13.30;99.90;;;;;;5054542;28;20565;-79
2021/05/22 06:19:47;;;;;;;2.75;1.88;;;13.30;99.90;;;;;;5055450;28;20131;-78
2021/05/22 06:22:13;;;;;;;7.22;2.75;;;13.30;99.90;;;;;;5053870;28;20085;-79
2021/05/22 06:24:40;;;;;;;4.03;1.80;;;13.20;99.90;;;;;;5053148;28;20057;-78
2021/05/22 06:27:06;;;;;;;3.42;1.90;;;13.10;99.90;;;;;;5053947;28;20052;-79
2021/05/22 06:29:33;;;;;;;4.22;2.30;;;13.00;99.90;;;;;;5054438;28;20083;-79
2021/05/22 06:31:59;;;;;;;4.80;2.17;;;13.00;99.90;;;;;;5053832;28;20140;-78
2021/05/22 06:34:25;;;;;;;4.90;2.08;;;13.00;99.90;;;;;;5053556;28;20186;-77
2021/05/22 06:36:54;;;;;;;3.47;1.90;;;13.00;99.90;;;;;;5053798;28;20132;-78
2021/05/22 06:39:21;;;;;;;5.72;2.33;;;13.10;99.90;;;;;;5053954;28;20048;-79
2021/05/22 06:41:47;;;;;;;5.43;1.90;;;13.20;99.90;;;;;;5053519;28;20060;-80
2021/05/22 06:44:21;;;;;;;5.00;2.17;;;13.20;99.90;;;;;;5053998;28;20548;-78
2021/05/22 06:46:47;;;;;;;6.38;2.17;;;13.20;99.90;;;;;;5053841;28;20505;-78
2021/05/22 06:49:14;;;;;;;7.72;2.08;;;13.20;99.90;;;;;;5053698;28;20128;-81
2021/05/22 06:51:40;;;;;;;3.58;1.95;;;13.20;99.90;;;;;;5053837;28;20049;-79
2021/05/22 06:54:08;;;;;;;5.90;2.05;;;13.10;99.90;;;;;;5057151;28;20140;-78
2021/05/22 06:56:34;;;;;;;5.32;1.98;;;13.10;99.90;;;;;;5053137;28;20077;-77
2021/05/22 06:59:00;;;;;;;7.10;2.47;;;13.00;99.90;;;;;;5053158;28;20049;-79
2021/05/22 07:01:27;;;;;;;7.43;2.90;;;13.00;99.90;;;;;;5053219;28;20055;-78
2021/05/22 07:03:54;;;;;;;5.57;3.00;;;12.90;99.90;;;;;;5052693;28;20061;-77
2021/05/22 07:06:23;;;;;;;6.93;2.70;;;12.80;99.90;;;;;;5053402;28;20103;-81
2021/05/22 07:08:50;;;;;;;5.80;3.05;;;12.70;99.90;;;;;;5053743;28;20045;-80
2021/05/22 07:11:18;;;;;;;5.20;2.30;;;12.50;99.90;;;;;;5057117;28;20534;-78
2021/05/22 07:13:45;;;;;;;5.60;2.42;;;12.40;99.90;;;;;;5052257;28;20405;-77
2021/05/22 07:16:11;;;;;;;5.22;2.63;;;12.30;99.90;;;;;;5052283;28;20055;-83
2021/05/22 07:18:37;;;;;;;7.75;2.55;;;12.30;99.90;;;;;;5051944;28;20171;-79
2021/05/22 07:21:04;;;;;;;7.30;2.50;;;12.30;99.90;;;;;;5052485;28;20048;-77
2021/05/22 07:23:31;;;;;;;8.60;2.28;;;12.30;99.90;;;;;;5053151;28;20477;-78
2021/05/22 07:25:57;;;;;;;9.75;2.85;;;12.30;99.90;;;;;;5052891;28;20048;-78
2021/05/22 07:28:25;;;;;;;6.70;2.42;;;12.30;99.90;;;;;;5052511;28;20584;-77
2021/05/22 07:30:51;;;;;;;5.88;2.83;;;12.30;99.90;;;;;;5053183;28;20045;-78
2021/05/22 07:33:18;;;;;;;6.55;2.97;;;12.30;99.90;;;;;;5053229;28;20156;-78
2021/05/22 07:35:44;;;;;;;5.35;2.65;;;12.30;99.90;;;;;;5053593;28;20056;-81
2021/05/22 07:38:11;;;;;;;5.90;2.92;;;12.40;99.90;;;;;;5052078;28;20045;-80
2021/05/22 07:40:37;;;;;;;6.65;2.67;;;12.40;99.90;;;;;;5053081;28;20053;-79
2021/05/22 07:43:04;;;;;;;7.40;3.92;;;12.40;99.90;;;;;;5052505;28;20476;-77
2021/05/22 07:45:31;;;;;;;5.00;2.83;;;12.40;99.90;;;;;;5052499;28;20467;-78
2021/05/22 07:47:58;;;;;;;5.20;2.65;;;12.40;99.90;;;;;;5052370;28;20069;-79
2021/05/22 07:50:25;;;;;;;9.32;2.45;;;12.40;99.90;;;;;;5052878;28;20049;-79
2021/05/22 07:52:51;;;;;;;7.32;2.50;;;12.40;99.90;;;;;;5052711;28;20143;-83
2021/05/22 07:55:17;;;;;;;10.90;3.10;;;12.40;99.90;;;;;;5052506;28;20135;-80
2021/05/22 07:57:44;;;;;;;6.25;4.10;;;12.40;99.90;;;;;;5053149;28;20070;-79
2021/05/22 08:00:11;;;;;;;5.68;2.63;;;12.30;99.90;;;;;;5052599;28;20087;-79
2021/05/22 08:02:38;;;;;;;8.23;3.78;;;12.30;99.90;;;;;;5053336;28;20077;-79
2021/05/22 08:05:06;;;;;;;6.82;3.10;;;12.30;99.90;;;;;;5053688;28;20079;-79
2021/05/22 08:07:32;;;;;;;6.45;4.43;;;12.30;99.90;;;;;;5053976;28;20088;-81
2021/05/22 08:09:59;;;;;;;8.77;3.42;;;12.20;99.90;;;;;;5054055;28;20045;-80
2021/05/22 08:12:25;;;;;;;10.77;6.25;;;12.30;99.90;;;;;;5053693;28;20129;-79
2021/05/22 08:14:52;;;;;;;7.53;4.72;;;12.30;99.90;;;;;;5052944;28;20099;-77
2021/05/22 08:17:18;;;;;;;7.47;4.05;;;12.40;99.90;;;;;;5052193;28;20053;-79
2021/05/22 08:19:46;;;;;;;5.82;2.70;;;12.40;99.90;;;;;;5052439;28;20117;-78
2021/05/22 08:22:13;;;;;;;6.07;3.15;;;12.40;99.90;;;;;;5054367;28;20135;-78
2021/05/22 08:24:39;;;;;;;8.15;2.50;;;12.50;99.90;;;;;;5053621;28;20068;-79
2021/05/22 08:27:06;;;;;;;8.00;3.55;;;12.50;99.90;;;;;;5053803;28;20104;-80
2021/05/22 08:29:32;;;;;;;6.50;3.15;;;12.50;99.90;;;;;;5053540;28;20044;-78
2021/05/22 08:31:58;;;;;;;6.47;3.60;;;12.60;99.90;;;;;;5051744;28;20044;-79
2021/05/22 08:34:27;;;;;;;5.93;3.40;;;12.70;99.90;;;;;;5051046;28;20053;-78
2021/05/22 08:36:55;;;;;;;6.05;3.03;;;12.80;99.90;;;;;;5051758;28;20420;-79
2021/05/22 08:39:21;;;;;;;4.82;2.90;;;12.90;99.90;;;;;;5052907;28;20083;-79
2021/05/22 08:45:38;;;;;;;5.32;3.00;;;13.00;99.90;;;;;;4987900;28;20482;-79
2021/05/22 08:52:14;;;;;;;4.57;3.25;;;13.00;99.90;;;;;;4940998;28;20047;-80
2021/05/22 08:54:42;;;;;;;4.95;2.22;;;13.10;99.90;;;;;;5007953;23;20444;-83
2021/05/22 08:57:09;;;;;;;4.30;1.88;;;12.90;99.90;;;;;;5068079;28;20041;-83
2021/05/22 08:59:40;;;;;;;5.60;2.40;;;12.80;99.90;;;;;;5074749;28;20079;-83
2021/05/22 09:02:07;;;;;;;7.50;2.97;;;12.70;99.90;;;;;;5074654;28;20059;-83
2021/05/22 09:04:53;;;;;;;4.63;2.20;;;12.70;99.90;;;;;;5076533;28;20087;-83
2021/05/22 09:07:23;;;;;;;7.28;2.45;;;12.70;99.90;;;;;;5064105;28;20049;-84
2021/05/22 09:09:50;;;;;;;5.72;3.22;;;12.80;99.90;;;;;;5063213;28;20105;-84
2021/05/22 09:12:19;;;;;;;7.07;2.75;;;12.90;99.90;;;;;;5064694;28;20085;-83
2021/05/22 09:14:48;;;;;;;5.65;2.50;;;12.90;99.90;;;;;;5063081;28;20057;-83
2021/05/22 09:17:21;;;;;;;8.00;2.30;;;12.90;99.90;;;;;;5064408;28;20080;-83
2021/05/22 09:19:48;;;;;;;5.63;2.33;;;12.90;99.90;;;;;;5063138;28;20064;-79
2021/05/22 09:22:20;;;;;;;3.30;2.22;;;13.00;99.90;;;;;;5064354;28;20109;-82
2021/05/22 09:28:16;;;;;;;5.80;2.72;;;13.20;99.90;;;;;;4964593;28;20051;-81
2021/05/22 09:30:48;;;;;;;5.10;2.90;;;13.20;99.90;;;;;;4972162;28;20519;-82
2021/05/22 09:33:16;;;;;;;5.55;1.98;;;13.30;99.90;;;;;;5035838;28;20065;-83
2021/05/22 09:35:51;;;;;;;5.60;2.38;;;13.30;99.90;;;;;;5029608;28;20149;-82
2021/05/22 09:38:18;;;;;;;3.92;2.15;;;13.30;99.90;;;;;;5025142;28;20072;-83
2021/05/22 09:40:45;;;;;;;4.15;1.92;;;13.40;99.90;;;;;;5043897;28;20127;-82
2021/05/22 09:43:13;;;;;;;6.68;2.35;;;13.30;99.90;;;;;;5045902;28;20085;-83
2021/05/22 09:45:41;;;;;;;4.35;2.85;;;13.30;99.90;;;;;;5044422;28;20056;-81
2021/05/22 09:48:11;;;;;;;9.40;4.88;;;13.40;99.90;;;;;;5030125;28;20060;-81
2021/05/22 09:50:39;;;;;;;7.18;2.65;;;13.50;99.90;;;;;;5023232;28;20137;-84
2021/05/22 09:53:27;;;;;;;5.85;2.80;;;13.60;99.90;;;;;;5040797;28;20068;-83
2021/05/22 09:56:17;;;;;;;7.95;3.03;;;13.60;99.90;;;;;;5041882;28;20053;-83
2021/05/22 09:58:45;;;;;;;4.38;1.88;;;13.60;99.90;;;;;;5039002;28;20491;-83
2021/05/22 10:01:12;;;;;;;5.88;2.25;;;13.60;99.90;;;;;;5041216;28;20111;-83
2021/05/22 10:03:39;;;;;;;4.63;2.40;;;13.70;99.90;;;;;;5041634;28;20504;-82
2021/05/22 10:06:05;;;;;;;4.55;2.22;;;13.70;99.90;;;;;;5041646;28;20113;-83
2021/05/22 10:08:32;;;;;;;5.25;1.90;;;13.70;99.90;;;;;;5022137;28;20085;-83
2021/05/22 10:10:58;;;;;;;6.60;2.55;;;13.70;99.90;;;;;;5021231;28;20128;-80
2021/05/22 10:13:27;;;;;;;6.07;2.10;;;13.80;99.90;;;;;;5021418;28;20125;-83
2021/05/22 10:15:55;;;;;;;4.70;2.30;;;13.80;99.90;;;;;;5041077;28;20137;-83
2021/05/22 10:18:23;;;;;;;6.47;2.65;;;13.80;99.90;;;;;;5040167;28;20137;-82
2021/05/22 10:20:51;;;;;;;4.70;2.15;;;13.90;99.90;;;;;;5034765;28;20140;-83
2021/05/22 10:23:18;;;;;;;10.23;2.72;;;14.00;99.90;;;;;;5025178;28;20053;-85
2021/05/22 10:25:46;;;;;;;3.65;2.03;;;14.20;99.90;;;;;;5041192;28;20045;-83
2021/05/22 10:28:13;;;;;;;6.75;2.35;;;14.30;99.90;;;;;;5042417;28;20126;-83
2021/05/22 10:30:41;;;;;;;4.45;2.50;;;14.40;99.90;;;;;;5041380;28;20050;-83
2021/05/22 10:33:09;;;;;;;8.05;2.38;;;14.50;99.90;;;;;;5041042;28;20136;-84
2021/05/22 10:35:43;;;;;;;7.22;2.28;;;14.40;99.90;;;;;;5040690;28;20405;-83
2021/05/22 10:38:10;;;;;;;11.43;2.38;;;14.40;99.90;;;;;;5041760;28;20053;-84
2021/05/22 10:40:49;;;;;;;3.50;1.98;;;14.50;99.90;;;;;;5035272;28;20058;-83
2021/05/22 10:43:39;;;;;;;2.90;1.73;;;14.50;99.90;;;;;;5025877;28;20053;-82
2021/05/22 10:46:08;;;;;;;4.90;2.13;;;14.60;99.90;;;;;;5021561;28;20054;-83
2021/05/22 10:48:51;;;;;;;5.97;1.95;;;14.80;99.90;;;;;;5025432;28;20046;-82
2021/05/22 10:51:32;;;;;;;7.90;2.55;;;14.80;99.90;;;;;;5021309;28;20049;-81
2021/05/22 10:53:59;;;;;;;4.97;2.40;;;14.80;99.90;;;;;;5020346;28;20050;-82
2021/05/22 10:56:26;;;;;;;7.88;2.40;;;14.70;99.90;;;;;;5019712;28;20115;-82
2021/05/22 10:59:19;;;;;;;10.52;3.17;;;14.70;99.90;;;;;;5028352;28;20128;-83
2021/05/22 11:01:47;;;;;;;9.57;2.72;;;14.60;99.90;;;;;;5019911;28;20092;-81
2021/05/22 11:04:35;;;;;;;17.75;3.53;;;14.60;99.90;;;;;;5020680;28;20046;-83
2021/05/22 11:07:23;;;;;;;15.82;2.88;;;14.50;99.90;;;;;;5020904;28;20060;-82
2021/05/22 11:09:54;;;;;;;11.45;2.75;;;14.40;99.90;;;;;;5027287;28;20421;-82
2021/05/22 11:12:50;;;;;;;15.85;3.13;;;14.40;99.90;;;;;;5039857;28;20136;-84
2021/05/22 11:15:46;;;;;;;17.80;3.60;;;14.30;99.90;;;;;;5039579;28;20061;-83
2021/05/22 11:18:15;;;;;;;15.55;3.05;;;14.30;99.90;;;;;;5039096;28;20057;-82
2021/05/22 11:20:44;;;;;;;18.33;2.95;;;14.30;99.90;;;;;;5039359;28;20080;-83
2021/05/22 11:23:11;;;;;;;19.63;3.25;;;14.30;99.90;;;;;;5022767;28;20057;-82
2021/05/22 11:25:46;;;;;;;13.98;4.55;;;14.40;99.90;;;;;;5036075;28;20092;-81
2021/05/22 11:28:18;;;;;;;15.65;3.58;;;14.30;99.90;;;;;;5039234;28;20109;-81
2021/05/22 11:30:47;;;;;;;14.10;2.67;;;14.40;99.90;;;;;;5038062;28;20049;-81
2021/05/22 11:33:33;;;;;;;13.30;3.05;;;14.40;99.90;;;;;;5038986;28;20421;-82
2021/05/22 11:36:23;;;;;;;7.85;2.88;;;14.50;99.90;;;;;;5039423;28;20522;-82
2021/05/22 11:38:53;;;;;;;12.52;3.10;;;14.50;99.90;;;;;;5036612;28;20049;-82
2021/05/22 11:41:31;;;;;;;8.55;2.92;;;14.50;99.90;;;;;;5039376;28;20045;-82
2021/05/22 11:44:08;;;;;;;14.07;2.88;;;14.40;99.90;;;;;;5039196;28;20045;-81
2021/05/22 11:46:35;;;;;;;11.20;4.60;;;14.30;99.90;;;;;;5029249;28;20045;-82
2021/05/22 11:49:03;;;;;;;10.60;2.83;;;14.20;99.90;;;;;;5026898;28;20109;-81
2021/05/22 11:51:32;;;;;;;7.57;2.50;;;14.20;99.90;;;;;;5031520;28;20490;-83
2021/05/22 11:54:00;;;;;;;11.10;3.03;;;14.10;99.90;;;;;;5031407;28;20049;-82
2021/05/22 11:56:29;;;;;;;9.73;2.95;;;14.00;99.90;;;;;;5039194;28;20077;-84
2021/05/22 11:58:57;;;;;;;8.77;2.95;;;14.00;99.90;;;;;;5040940;28;20056;-84
2021/05/22 12:01:26;;;;;;;7.90;2.67;;;14.00;99.90;;;;;;5039565;28;20057;-83
2021/05/22 12:03:54;;;;;;;10.63;3.13;;;14.00;99.90;;;;;;5045962;28;20053;-81
2021/05/22 12:06:28;;;;;;;7.75;3.13;;;14.00;99.90;;;;;;5050389;28;20064;-82
2021/05/22 12:09:11;;;;;;;9.35;2.63;;;13.90;99.90;;;;;;5045137;28;20065;-82
2021/05/22 12:11:42;;;;;;;;;;;13.90;99.90;;;;;;5021894;28;20064;-81
2021/05/22 12:14:14;;;;;;;8.68;2.47;;;13.90;99.90;;;;;;5050899;28;19920;-82
2021/05/22 12:16:41;;;;;;;8.80;3.20;;;13.90;99.90;;;;;;5052882;28;20136;-83
2021/05/22 12:19:16;;;;;;;8.32;3.72;;;14.00;99.90;;;;;;5026227;28;20308;-82
2021/05/22 12:21:49;;;;;;;11.88;3.55;;;14.10;99.90;;;;;;5061631;28;20055;-82
2021/05/22 12:24:19;;;;;;;10.70;3.00;;;14.30;99.90;;;;;;5057892;28;20083;-81
2021/05/22 12:26:52;;;;;;;6.93;2.63;;;14.40;99.90;;;;;;5058923;28;20057;-82
2021/05/22 12:29:18;;;;;;;12.52;3.17;;;14.60;99.90;;;;;;5057396;28;20072;-81
2021/05/22 12:31:50;;;;;;;11.75;3.17;;;14.70;99.90;;;;;;5057504;28;20138;-80
2021/05/22 12:34:24;;;;;;;9.80;2.95;;;14.90;99.90;;;;;;5062634;28;20045;-79
2021/05/22 12:36:56;;;;;;;7.93;4.38;;;15.10;99.90;;;;;;5060325;28;20052;-81
2021/05/22 12:39:24;;;;;;;12.63;3.47;;;15.10;99.90;;;;;;5061229;28;20385;-80
2021/05/22 12:41:54;;;;;;;10.10;2.75;;;15.20;99.90;;;;;;5062089;28;20060;-83
2021/05/22 12:44:21;;;;;;;6.53;3.03;;;15.30;99.90;;;;;;5063270;28;20053;-83
2021/05/22 12:46:58;;;;;;;8.70;3.05;;;15.30;99.90;;;;;;5062101;28;20509;-84
2021/05/22 12:49:31;;;;;;;8.40;2.83;;;15.40;99.90;;;;;;5063228;28;20110;-83
2021/05/22 12:52:03;;;;;;;6.28;2.40;;;15.40;99.90;;;;;;5063793;28;20056;-85
2021/05/22 12:54:46;;;;;;;7.93;2.60;;;15.30;99.90;;;;;;5062702;28;20040;-83
2021/05/22 12:57:14;;;;;;;8.20;2.58;;;15.20;99.90;;;;;;5064375;28;20110;-82
2021/05/22 12:59:45;;;;;;;10.32;2.60;;;15.10;99.90;;;;;;5063647;28;20045;-84
2021/05/22 13:02:14;;;;;;;6.93;2.88;;;15.20;99.90;;;;;;5063090;28;20196;-83
2021/05/22 13:04:41;;;;;;;9.60;2.83;;;15.20;99.90;;;;;;5063230;28;20107;-83
2021/05/22 13:07:14;;;;;;;4.15;2.25;;;15.10;99.90;;;;;;5063615;28;20049;-83